sensor_id;sensor_type;location;lat;lon;timestamp;P1;durP1;ratioP1;P2;durP2;ratioP2
43226;SDS011;28839;52.404;9.808;2023-03-23T00:01:41;4.12;;;1.58;;
43226;SDS011;28839;52.404;9.808;2023-03-23T00:08:35;5.43;;;2.53;;
43226;SDS011;28839;52.404;9.808;2023-03-23T00:15:38;2.80;;;2.03;;
43226;SDS011;28839;52.404;9.808;2023-03-23T00:22:33;5.32;;;2.35;;
43226;SDS011;28839;52.404;9.808;2023-03-23T00:29:29;5.78;;;2.67;;
43226;SDS011;28839;52.404;9.808;2023-03-23T00:36:25;7.65;;;2.95;;
43226;SDS011;28839;52.404;9.808;2023-03-23T00:43:19;6.60;;;2.53;;
43226;SDS011;28839;52.404;9.808;2023-03-23T00:50:16;5.05;;;2.85;;
43226;SDS011;28839;52.404;9.808;2023-03-23T00:57:11;3.33;;;2.60;;
43226;SDS011;28839;52.404;9.808;2023-03-23T01:04:05;4.95;;;3.10;;
43226;SDS011;28839;52.404;9.808;2023-03-23T01:11:04;5.72;;;3.03;;
43226;SDS011;28839;52.404;9.808;2023-03-23T01:18:01;4.95;;;2.67;;
43226;SDS011;28839;52.404;9.808;2023-03-23T01:24:55;3.75;;;2.83;;
43226;SDS011;28839;52.404;9.808;2023-03-23T01:31:48;5.28;;;2.67;;
43226;SDS011;28839;52.404;9.808;2023-03-23T01:38:44;4.62;;;2.85;;
43226;SDS011;28839;52.404;9.808;2023-03-23T01:45:40;5.50;;;3.58;;
43226;SDS011;28839;52.404;9.808;2023-03-23T01:52:34;7.20;;;2.75;;
43226;SDS011;28839;52.404;9.808;2023-03-23T01:59:29;5.87;;;3.03;;
43226;SDS011;28839;52.404;9.808;2023-03-23T02:06:25;3.53;;;2.70;;
43226;SDS011;28839;52.404;9.808;2023-03-23T02:13:18;4.87;;;2.75;;
43226;SDS011;28839;52.404;9.808;2023-03-23T02:20:17;3.37;;;2.70;;
43226;SDS011;28839;52.404;9.808;2023-03-23T02:27:24;4.75;;;2.70;;
43226;SDS011;28839;52.404;9.808;2023-03-23T02:34:36;7.43;;;2.70;;
43226;SDS011;28839;52.404;9.808;2023-03-23T02:41:36;5.87;;;2.62;;
43226;SDS011;28839;52.404;9.808;2023-03-23T02:48:34;4.85;;;2.70;;
43226;SDS011;28839;52.404;9.808;2023-03-23T02:55:32;3.85;;;2.22;;
43226;SDS011;28839;52.404;9.808;2023-03-23T03:02:34;5.28;;;3.03;;
43226;SDS011;28839;52.404;9.808;2023-03-23T03:09:31;6.50;;;2.92;;
43226;SDS011;28839;52.404;9.808;2023-03-23T03:16:35;5.05;;;2.90;;
43226;SDS011;28839;52.404;9.808;2023-03-23T03:23:34;5.80;;;2.95;;
43226;SDS011;28839;52.404;9.808;2023-03-23T03:30:30;5.28;;;2.95;;
43226;SDS011;28839;52.404;9.808;2023-03-23T03:37:28;7.47;;;3.90;;
43226;SDS011;28839;52.404;9.808;2023-03-23T03:44:29;6.37;;;3.35;;
43226;SDS011;28839;52.404;9.808;2023-03-23T03:51:23;4.22;;;2.72;;
43226;SDS011;28839;52.404;9.808;2023-03-23T03:58:18;4.23;;;3.30;;
43226;SDS011;28839;52.404;9.808;2023-03-23T04:05:12;6.65;;;2.97;;
43226;SDS011;28839;52.404;9.808;2023-03-23T04:12:06;7.23;;;2.87;;
43226;SDS011;28839;52.404;9.808;2023-03-23T04:19:01;2.93;;;2.27;;
43226;SDS011;28839;52.404;9.808;2023-03-23T04:25:55;5.80;;;2.40;;
43226;SDS011;28839;52.404;9.808;2023-03-23T04:32:50;5.53;;;2.10;;
43226;SDS011;28839;52.404;9.808;2023-03-23T04:39:48;4.40;;;2.70;;
43226;SDS011;28839;52.404;9.808;2023-03-23T04:46:42;4.97;;;2.45;;
43226;SDS011;28839;52.404;9.808;2023-03-23T04:53:37;4.30;;;2.62;;
43226;SDS011;28839;52.404;9.808;2023-03-23T05:00:32;4.53;;;2.47;;
43226;SDS011;28839;52.404;9.808;2023-03-23T05:07:27;2.85;;;2.42;;
43226;SDS011;28839;52.404;9.808;2023-03-23T05:14:20;6.20;;;2.65;;
43226;SDS011;28839;52.404;9.808;2023-03-23T05:21:16;2.83;;;2.20;;
43226;SDS011;28839;52.404;9.808;2023-03-23T05:28:11;3.42;;;1.85;;
43226;SDS011;28839;52.404;9.808;2023-03-23T05:35:05;2.53;;;1.90;;
43226;SDS011;28839;52.404;9.808;2023-03-23T05:42:00;6.37;;;1.60;;
43226;SDS011;28839;52.404;9.808;2023-03-23T05:48:54;3.45;;;1.90;;
43226;SDS011;28839;52.404;9.808;2023-03-23T05:55:48;3.28;;;1.70;;
43226;SDS011;28839;52.404;9.808;2023-03-23T06:02:43;3.37;;;1.90;;
43226;SDS011;28839;52.404;9.808;2023-03-23T06:09:37;2.80;;;1.83;;
43226;SDS011;28839;52.404;9.808;2023-03-23T06:16:32;4.37;;;2.22;;
43226;SDS011;28839;52.404;9.808;2023-03-23T06:23:27;4.07;;;1.62;;
43226;SDS011;28839;52.404;9.808;2023-03-23T06:30:21;3.17;;;1.60;;
43226;SDS011;28839;52.404;9.808;2023-03-23T06:37:15;1.60;;;1.23;;
43226;SDS011;28839;52.404;9.808;2023-03-23T06:44:10;2.15;;;1.20;;
43226;SDS011;28839;52.404;9.808;2023-03-23T06:51:05;8.52;;;3.45;;
43226;SDS011;28839;52.404;9.808;2023-03-23T06:57:59;3.07;;;1.50;;
43226;SDS011;28839;52.404;9.808;2023-03-23T07:04:54;3.33;;;1.50;;
43226;SDS011;28839;52.404;9.808;2023-03-23T07:11:49;1.20;;;1.10;;
43226;SDS011;28839;52.404;9.808;2023-03-23T07:18:43;1.90;;;1.20;;
43226;SDS011;28839;52.404;9.808;2023-03-23T07:25:39;1.70;;;1.27;;
43226;SDS011;28839;52.404;9.808;2023-03-23T07:32:33;2.30;;;1.25;;
43226;SDS011;28839;52.404;9.808;2023-03-23T07:39:27;2.85;;;1.50;;
43226;SDS011;28839;52.404;9.808;2023-03-23T07:46:22;1.93;;;1.50;;
43226;SDS011;28839;52.404;9.808;2023-03-23T07:53:16;2.83;;;1.75;;
43226;SDS011;28839;52.404;9.808;2023-03-23T08:00:10;1.83;;;1.62;;
43226;SDS011;28839;52.404;9.808;2023-03-23T08:07:09;2.80;;;1.42;;
43226;SDS011;28839;52.404;9.808;2023-03-23T08:14:04;2.50;;;1.60;;
43226;SDS011;28839;52.404;9.808;2023-03-23T08:20:58;3.73;;;1.67;;
43226;SDS011;28839;52.404;9.808;2023-03-23T08:27:53;3.35;;;1.50;;
43226;SDS011;28839;52.404;9.808;2023-03-23T08:34:47;3.28;;;1.65;;
43226;SDS011;28839;52.404;9.808;2023-03-23T08:41:41;2.07;;;1.83;;
43226;SDS011;28839;52.404;9.808;2023-03-23T08:48:39;3.00;;;2.30;;
43226;SDS011;28839;52.404;9.808;2023-03-23T08:55:33;3.65;;;1.90;;
43226;SDS011;28839;52.404;9.808;2023-03-23T09:02:27;4.73;;;2.23;;
43226;SDS011;28839;52.404;9.808;2023-03-23T09:09:27;2.53;;;1.58;;
43226;SDS011;28839;52.404;9.808;2023-03-23T09:16:21;3.22;;;1.90;;
43226;SDS011;28839;52.404;9.808;2023-03-23T09:23:15;5.93;;;1.87;;
43226;SDS011;28839;52.404;9.808;2023-03-23T09:30:11;4.37;;;1.70;;
43226;SDS011;28839;52.404;9.808;2023-03-23T09:37:06;5.97;;;2.30;;
43226;SDS011;28839;52.404;9.808;2023-03-23T09:44:03;4.93;;;1.87;;
43226;SDS011;28839;52.404;9.808;2023-03-23T09:51:03;4.95;;;2.65;;
43226;SDS011;28839;52.404;9.808;2023-03-23T09:58:09;6.97;;;2.03;;
43226;SDS011;28839;52.404;9.808;2023-03-23T10:05:22;11.23;;;3.78;;
43226;SDS011;28839;52.404;9.808;2023-03-23T10:12:27;8.68;;;2.30;;
43226;SDS011;28839;52.404;9.808;2023-03-23T10:26:29;4.50;;;2.35;;
43226;SDS011;28839;52.404;9.808;2023-03-23T10:33:36;7.10;;;2.28;;
43226;SDS011;28839;52.404;9.808;2023-03-23T10:40:34;8.93;;;2.15;;
43226;SDS011;28839;52.404;9.808;2023-03-23T10:47:37;5.43;;;2.40;;
43226;SDS011;28839;52.404;9.808;2023-03-23T10:54:37;4.65;;;1.70;;
43226;SDS011;28839;52.404;9.808;2023-03-23T11:01:33;8.35;;;2.55;;
43226;SDS011;28839;52.404;9.808;2023-03-23T11:08:29;5.80;;;1.83;;
43226;SDS011;28839;52.404;9.808;2023-03-23T11:15:31;5.03;;;2.30;;
43226;SDS011;28839;52.404;9.808;2023-03-23T11:22:28;5.37;;;2.00;;
43226;SDS011;28839;52.404;9.808;2023-03-23T11:29:27;6.00;;;1.90;;
43226;SDS011;28839;52.404;9.808;2023-03-23T11:36:30;3.92;;;2.03;;
43226;SDS011;28839;52.404;9.808;2023-03-23T11:43:27;6.45;;;2.10;;
43226;SDS011;28839;52.404;9.808;2023-03-23T11:50:21;5.43;;;2.17;;
43226;SDS011;28839;52.404;9.808;2023-03-23T11:57:19;6.60;;;2.08;;
43226;SDS011;28839;52.404;9.808;2023-03-23T12:11:40;8.93;;;1.90;;
43226;SDS011;28839;52.404;9.808;2023-03-23T12:18:53;7.95;;;3.00;;
43226;SDS011;28839;52.404;9.808;2023-03-23T12:25:58;3.60;;;2.22;;
43226;SDS011;28839;52.404;9.808;2023-03-23T12:33:16;3.15;;;1.52;;
43226;SDS011;28839;52.404;9.808;2023-03-23T12:40:26;5.55;;;1.83;;
43226;SDS011;28839;52.404;9.808;2023-03-23T12:47:39;3.95;;;1.60;;
43226;SDS011;28839;52.404;9.808;2023-03-23T12:54:37;2.83;;;1.73;;
43226;SDS011;28839;52.404;9.808;2023-03-23T13:01:42;5.90;;;1.40;;
43226;SDS011;28839;52.404;9.808;2023-03-23T13:08:39;3.42;;;1.00;;
43226;SDS011;28839;52.404;9.808;2023-03-23T13:15:37;1.02;;;0.88;;
43226;SDS011;28839;52.404;9.808;2023-03-23T13:22:41;2.47;;;1.10;;
43226;SDS011;28839;52.404;9.808;2023-03-23T13:29:43;1.33;;;0.80;;
43226;SDS011;28839;52.404;9.808;2023-03-23T13:36:38;1.52;;;0.68;;
43226;SDS011;28839;52.404;9.808;2023-03-23T13:43:35;3.35;;;1.00;;
43226;SDS011;28839;52.404;9.808;2023-03-23T13:50:30;5.12;;;0.70;;
43226;SDS011;28839;52.404;9.808;2023-03-23T13:57:37;3.55;;;0.80;;
43226;SDS011;28839;52.404;9.808;2023-03-23T14:04:44;1.12;;;0.55;;
43226;SDS011;28839;52.404;9.808;2023-03-23T14:11:48;1.58;;;0.80;;
43226;SDS011;28839;52.404;9.808;2023-03-23T14:18:48;4.50;;;1.35;;
43226;SDS011;28839;52.404;9.808;2023-03-23T14:25:58;1.73;;;0.90;;
43226;SDS011;28839;52.404;9.808;2023-03-23T14:33:02;1.62;;;0.75;;
43226;SDS011;28839;52.404;9.808;2023-03-23T14:39:57;2.00;;;0.90;;
43226;SDS011;28839;52.404;9.808;2023-03-23T14:53:48;1.17;;;0.80;;
43226;SDS011;28839;52.404;9.808;2023-03-23T15:00:46;2.40;;;1.33;;
43226;SDS011;28839;52.404;9.808;2023-03-23T15:07:46;1.98;;;1.10;;
43226;SDS011;28839;52.404;9.808;2023-03-23T15:14:44;2.20;;;1.30;;
43226;SDS011;28839;52.404;9.808;2023-03-23T15:21:46;4.45;;;1.25;;
43226;SDS011;28839;52.404;9.808;2023-03-23T15:28:43;1.98;;;1.10;;
43226;SDS011;28839;52.404;9.808;2023-03-23T15:35:38;1.42;;;1.20;;
43226;SDS011;28839;52.404;9.808;2023-03-23T15:42:34;5.03;;;1.20;;
43226;SDS011;28839;52.404;9.808;2023-03-23T15:49:29;2.85;;;1.25;;
43226;SDS011;28839;52.404;9.808;2023-03-23T15:56:24;3.05;;;1.77;;
43226;SDS011;28839;52.404;9.808;2023-03-23T16:03:19;1.33;;;1.05;;
43226;SDS011;28839;52.404;9.808;2023-03-23T16:10:20;3.67;;;1.40;;
43226;SDS011;28839;52.404;9.808;2023-03-23T16:17:18;2.75;;;1.75;;
43226;SDS011;28839;52.404;9.808;2023-03-23T16:24:12;3.37;;;1.27;;
43226;SDS011;28839;52.404;9.808;2023-03-23T16:31:07;2.05;;;1.20;;
43226;SDS011;28839;52.404;9.808;2023-03-23T16:38:02;4.35;;;1.95;;
43226;SDS011;28839;52.404;9.808;2023-03-23T16:44:56;3.72;;;1.52;;
43226;SDS011;28839;52.404;9.808;2023-03-23T16:51:51;7.50;;;2.70;;
43226;SDS011;28839;52.404;9.808;2023-03-23T16:58:45;6.55;;;1.58;;
43226;SDS011;28839;52.404;9.808;2023-03-23T17:05:39;3.65;;;1.62;;
43226;SDS011;28839;52.404;9.808;2023-03-23T17:12:35;4.20;;;2.50;;
43226;SDS011;28839;52.404;9.808;2023-03-23T17:19:29;3.55;;;1.87;;
43226;SDS011;28839;52.404;9.808;2023-03-23T17:26:22;4.32;;;2.10;;
43226;SDS011;28839;52.404;9.808;2023-03-23T17:33:18;3.80;;;1.95;;
43226;SDS011;28839;52.404;9.808;2023-03-23T17:40:11;5.32;;;1.95;;
43226;SDS011;28839;52.404;9.808;2023-03-23T17:47:06;3.42;;;2.30;;
43226;SDS011;28839;52.404;9.808;2023-03-23T17:54:01;6.97;;;2.75;;
43226;SDS011;28839;52.404;9.808;2023-03-23T18:00:55;4.72;;;2.40;;
43226;SDS011;28839;52.404;9.808;2023-03-23T18:07:49;4.72;;;2.25;;
43226;SDS011;28839;52.404;9.808;2023-03-23T18:14:44;5.10;;;2.40;;
43226;SDS011;28839;52.404;9.808;2023-03-23T18:21:38;5.18;;;3.37;;
43226;SDS011;28839;52.404;9.808;2023-03-23T18:28:32;3.77;;;2.77;;
43226;SDS011;28839;52.404;9.808;2023-03-23T18:35:28;4.57;;;2.58;;
43226;SDS011;28839;52.404;9.808;2023-03-23T18:42:22;3.65;;;2.55;;
43226;SDS011;28839;52.404;9.808;2023-03-23T18:49:17;4.32;;;3.12;;
43226;SDS011;28839;52.404;9.808;2023-03-23T18:56:13;7.80;;;3.67;;
43226;SDS011;28839;52.404;9.808;2023-03-23T19:03:08;5.25;;;2.90;;
43226;SDS011;28839;52.404;9.808;2023-03-23T19:10:03;6.85;;;2.85;;
43226;SDS011;28839;52.404;9.808;2023-03-23T19:16:58;11.05;;;7.53;;
43226;SDS011;28839;52.404;9.808;2023-03-23T19:23:52;5.00;;;3.35;;
43226;SDS011;28839;52.404;9.808;2023-03-23T19:30:47;7.03;;;3.47;;
43226;SDS011;28839;52.404;9.808;2023-03-23T19:37:46;4.87;;;3.25;;
43226;SDS011;28839;52.404;9.808;2023-03-23T19:44:40;4.95;;;3.25;;
43226;SDS011;28839;52.404;9.808;2023-03-23T19:51:34;11.23;;;3.27;;
43226;SDS011;28839;52.404;9.808;2023-03-23T19:58:29;4.55;;;2.80;;
43226;SDS011;28839;52.404;9.808;2023-03-23T20:05:23;4.18;;;2.87;;
43226;SDS011;28839;52.404;9.808;2023-03-23T20:12:17;4.40;;;3.47;;
43226;SDS011;28839;52.404;9.808;2023-03-23T20:19:12;5.70;;;3.20;;
43226;SDS011;28839;52.404;9.808;2023-03-23T20:26:07;7.30;;;3.15;;
43226;SDS011;28839;52.404;9.808;2023-03-23T20:33:02;5.50;;;3.42;;
43226;SDS011;28839;52.404;9.808;2023-03-23T20:39:57;7.20;;;3.30;;
43226;SDS011;28839;52.404;9.808;2023-03-23T20:46:51;5.18;;;2.83;;
43226;SDS011;28839;52.404;9.808;2023-03-23T20:53:45;6.57;;;3.35;;
43226;SDS011;28839;52.404;9.808;2023-03-23T21:00:41;6.17;;;3.03;;
43226;SDS011;28839;52.404;9.808;2023-03-23T21:07:35;5.07;;;2.80;;
43226;SDS011;28839;52.404;9.808;2023-03-23T21:14:30;4.97;;;2.70;;
43226;SDS011;28839;52.404;9.808;2023-03-23T21:21:25;4.07;;;2.40;;
43226;SDS011;28839;52.404;9.808;2023-03-23T21:28:19;7.55;;;2.60;;
43226;SDS011;28839;52.404;9.808;2023-03-23T21:35:13;8.70;;;2.20;;
43226;SDS011;28839;52.404;9.808;2023-03-23T21:42:08;6.77;;;2.53;;
43226;SDS011;28839;52.404;9.808;2023-03-23T21:49:05;3.58;;;2.25;;
43226;SDS011;28839;52.404;9.808;2023-03-23T21:56:01;3.72;;;2.20;;
43226;SDS011;28839;52.404;9.808;2023-03-23T22:02:57;7.80;;;2.47;;
43226;SDS011;28839;52.404;9.808;2023-03-23T22:09:52;4.10;;;2.15;;
43226;SDS011;28839;52.404;9.808;2023-03-23T22:16:46;3.73;;;2.43;;
43226;SDS011;28839;52.404;9.808;2023-03-23T22:23:41;4.43;;;2.25;;
43226;SDS011;28839;52.404;9.808;2023-03-23T22:30:37;4.57;;;2.60;;
43226;SDS011;28839;52.404;9.808;2023-03-23T22:37:31;5.60;;;2.80;;
43226;SDS011;28839;52.404;9.808;2023-03-23T22:44:26;3.20;;;2.00;;
43226;SDS011;28839;52.404;9.808;2023-03-23T22:51:21;6.12;;;2.60;;
43226;SDS011;28839;52.404;9.808;2023-03-23T22:58:15;3.42;;;2.40;;
43226;SDS011;28839;52.404;9.808;2023-03-23T23:05:11;3.58;;;1.98;;
43226;SDS011;28839;52.404;9.808;2023-03-23T23:12:06;5.62;;;2.33;;
43226;SDS011;28839;52.404;9.808;2023-03-23T23:19:01;4.43;;;2.33;;
43226;SDS011;28839;52.404;9.808;2023-03-23T23:25:57;4.10;;;2.53;;
43226;SDS011;28839;52.404;9.808;2023-03-23T23:32:51;4.28;;;2.00;;
43226;SDS011;28839;52.404;9.808;2023-03-23T23:46:41;5.28;;;2.87;;
43226;SDS011;28839;52.404;9.808;2023-03-23T23:53:34;4.07;;;2.03;;
